Time;durP1;ratioP1;P1;durP2;ratioP2;P2;SDS_P1;SDS_P2;PMS_P1;PMS_P2;Temp;Humidity;BMP_temperature;BMP_pressure;BME280_temperature;BME280_humidity;BME280_pressure;Samples;Min_cycle;Max_cycle;Signal;HPM_P1;HPM_P2
2021/06/26 00:00:11;;;;;;;10.02;5.57;;;;;;;21.07;52.97;101943.59;4990670;28;20029;-66
2021/06/26 00:02:37;;;;;;;9.68;5.65;;;;;;;21.07;52.80;101940.91;5010357;28;20517;-68
2021/06/26 00:05:03;;;;;;;12.43;5.72;;;;;;;21.07;52.75;101945.41;5008344;28;20153;-67
2021/06/26 00:07:29;;;;;;;9.20;5.03;;;;;;;21.07;53.02;101946.25;5018365;28;20064;-67
2021/06/26 00:09:54;;;;;;;7.90;4.75;;;;;;;21.06;52.96;101935.75;5022867;28;20096;-68
2021/06/26 00:12:20;;;;;;;8.57;5.20;;;;;;;21.05;52.78;101953.59;4993143;28;20099;-67
2021/06/26 00:14:45;;;;;;;8.65;5.63;;;;;;;21.05;52.77;101942.09;5009428;28;20433;-67
2021/06/26 00:17:12;;;;;;;9.20;5.80;;;;;;;21.06;52.85;101949.09;4998758;28;20041;-67
2021/06/26 00:19:37;;;;;;;8.32;5.28;;;;;;;21.05;52.83;101947.44;5023678;28;20043;-67
2021/06/26 00:22:03;;;;;;;11.10;5.30;;;;;;;21.04;52.53;101945.78;5007350;28;20029;-67
2021/06/26 00:24:29;;;;;;;9.23;5.43;;;;;;;21.04;52.68;101940.44;5006346;28;20029;-67
2021/06/26 00:26:54;;;;;;;8.63;5.50;;;;;;;21.04;52.81;101946.63;5005060;28;20042;-68
2021/06/26 00:29:20;;;;;;;7.55;4.85;;;;;;;21.03;52.84;101950.28;5009096;28;20164;-65
2021/06/26 00:31:46;;;;;;;7.47;4.80;;;;;;;21.04;52.83;101951.13;5024518;28;20042;-64
2021/06/26 00:34:11;;;;;;;8.60;4.72;;;;;;;21.03;52.84;101944.13;5025828;28;20033;-65
2021/06/26 00:36:37;;;;;;;7.32;5.00;;;;;;;21.02;52.77;101945.97;5008002;28;20116;-69
2021/06/26 00:39:03;;;;;;;8.05;4.97;;;;;;;21.02;52.65;101942.47;5008662;28;20049;-64
2021/06/26 00:41:28;;;;;;;9.02;4.90;;;;;;;21.02;52.40;101937.13;5019384;28;20053;-65
2021/06/26 00:43:54;;;;;;;7.32;4.53;;;;;;;21.01;52.92;101938.97;5022359;28;20026;-66
2021/06/26 00:46:19;;;;;;;7.57;4.90;;;;;;;21.01;52.38;101935.47;5024232;28;20473;-66
2021/06/26 00:48:45;;;;;;;8.93;4.90;;;;;;;21.01;52.60;101940.81;5023471;28;20121;-65
2021/06/26 00:51:10;;;;;;;9.45;4.70;;;;;;;21.00;52.43;101939.16;5024500;28;20057;-65
2021/06/26 00:53:36;;;;;;;7.90;4.65;;;;;;;21.00;52.73;101937.31;5019512;28;20040;-67
2021/06/26 00:56:02;;;;;;;8.10;5.10;;;;;;;21.00;52.62;101939.16;4996062;28;20034;-64
2021/06/26 00:58:28;;;;;;;8.38;4.40;;;;;;;21.01;52.62;101938.16;4979365;28;20030;-65
2021/06/26 01:00:54;;;;;;;7.72;5.07;;;;;;;21.00;52.51;101936.50;5009953;28;20041;-68
2021/06/26 01:03:20;;;;;;;7.60;4.55;;;;;;;20.99;52.42;101934.81;5009366;28;20041;-65
2021/06/26 01:05:46;;;;;;;6.40;4.22;;;;;;;20.98;52.47;101931.31;5008762;28;20458;-65
2021/06/26 01:08:12;;;;;;;7.85;4.70;;;;;;;20.98;52.59;101927.81;5019512;28;20513;-64
2021/06/26 01:10:37;;;;;;;8.65;4.68;;;;;;;20.99;52.32;101935.66;5025678;28;20493;-69
2021/06/26 01:13:04;;;;;;;6.63;4.68;;;;;;;20.98;52.27;101933.13;5005967;28;20126;-65
2021/06/26 01:15:29;;;;;;;6.70;4.47;;;;;;;20.97;52.33;101928.81;5003301;28;20101;-66
2021/06/26 01:17:55;;;;;;;7.13;4.40;;;;;;;20.97;52.67;101934.97;5015892;28;20513;-65
2021/06/26 01:20:21;;;;;;;6.90;4.50;;;;;;;20.97;52.42;101934.97;5021469;28;20532;-65
2021/06/26 01:22:50;;;;;;;7.45;4.63;;;;;;;20.96;52.27;101930.66;5016858;28;20410;-64
2021/06/26 01:25:22;;;;;;;6.10;4.10;;;;;;;20.96;52.35;101930.66;5003589;28;20477;-65
2021/06/26 01:27:48;;;;;;;7.53;4.13;;;;;;;20.97;52.44;101929.66;5016124;28;20164;-66
2021/06/26 01:30:15;;;;;;;6.75;4.43;;;;;;;20.97;52.45;101932.31;5004828;28;20154;-65
2021/06/26 01:32:40;;;;;;;7.10;4.43;;;;;;;20.97;52.31;101928.81;5024672;28;20037;-64
2021/06/26 01:35:07;;;;;;;6.72;4.18;;;;;;;20.96;52.76;101922.66;5023656;28;20045;-65
2021/06/26 01:37:33;;;;;;;6.60;4.20;;;;;;;20.97;52.74;101923.47;4999361;28;20069;-66
2021/06/26 01:39:58;;;;;;;7.28;4.10;;;;;;;20.96;52.31;101930.66;5025058;28;20063;-66
2021/06/26 01:42:24;;;;;;;7.22;4.13;;;;;;;20.96;52.75;101929.81;5004573;28;20034;-66
2021/06/26 01:44:49;;;;;;;7.80;4.20;;;;;;;20.96;52.77;101935.16;5025202;28;20044;-66
2021/06/26 01:47:15;;;;;;;6.72;3.85;;;;;;;20.95;52.80;101934.34;5009825;28;20482;-65
2021/06/26 01:49:40;;;;;;;7.40;4.38;;;;;;;20.96;52.37;101938.66;5023011;28;20029;-66
2021/06/26 01:52:09;;;;;;;8.07;4.63;;;;;;;20.96;52.51;101933.31;5018316;28;20393;-65
2021/06/26 01:54:36;;;;;;;6.32;3.55;;;;;;;20.95;52.61;101934.34;4994523;28;20044;-65
2021/06/26 01:57:03;;;;;;;5.88;3.60;;;;;;;20.94;52.81;101936.16;5001478;28;20081;-66
2021/06/26 01:59:28;;;;;;;6.78;4.03;;;;;;;20.96;52.44;101935.16;4984632;28;20045;-65
2021/06/26 02:01:54;;;;;;;6.70;3.75;;;;;;;20.94;52.38;101936.16;5003700;28;20421;-66
2021/06/26 02:04:19;;;;;;;6.43;3.80;;;;;;;20.94;52.47;101930.00;5008661;28;20397;-65
2021/06/26 02:06:45;;;;;;;6.40;3.88;;;;;;;20.94;52.78;101928.16;5016510;28;20045;-66
2021/06/26 02:09:10;;;;;;;6.50;3.83;;;;;;;20.95;52.49;101923.66;5008280;28;20025;-66
2021/06/26 02:11:36;;;;;;;5.75;3.63;;;;;;;20.94;52.40;101927.34;5020844;28;20497;-65
2021/06/26 02:14:01;;;;;;;5.72;3.35;;;;;;;20.94;52.72;101927.34;5024653;28;20029;-64
2021/06/26 02:16:27;;;;;;;6.75;3.78;;;;;;;20.94;52.61;101925.50;4996346;28;20045;-65
2021/06/26 02:18:53;;;;;;;5.63;3.42;;;;;;;20.93;52.62;101923.00;5020948;28;20380;-66
2021/06/26 02:21:19;;;;;;;5.53;3.55;;;;;;;20.93;52.25;101923.84;5007279;28;20037;-70
2021/06/26 02:23:45;;;;;;;6.10;3.33;;;;;;;20.93;52.51;101923.84;5001015;28;20108;-65
2021/06/26 02:26:10;;;;;;;6.57;3.90;;;;;;;20.93;52.69;101920.34;5019992;28;20516;-64
2021/06/26 02:28:36;;;;;;;5.43;3.58;;;;;;;20.93;52.28;101920.34;5011901;28;20034;-65
2021/06/26 02:31:01;;;;;;;5.32;3.35;;;;;;;20.91;52.40;101920.53;5025583;28;20029;-65
2021/06/26 02:33:27;;;;;;;6.07;3.25;;;;;;;20.91;52.53;101917.88;5022839;28;20037;-65
2021/06/26 02:35:52;;;;;;;5.55;3.20;;;;;;;20.92;52.44;101913.34;5003588;28;20060;-64
2021/06/26 02:38:18;;;;;;;5.90;3.30;;;;;;;20.92;52.13;101914.19;5002828;28;20683;-66
2021/06/26 02:40:43;;;;;;;4.43;3.08;;;;;;;20.91;52.54;101917.03;5022496;28;20460;-65
2021/06/26 02:43:09;;;;;;;5.25;2.97;;;;;;;20.91;52.27;101907.19;5008435;28;20145;-66
2021/06/26 02:45:34;;;;;;;5.15;3.13;;;;;;;20.92;52.52;101910.69;4995686;28;20473;-65
2021/06/26 02:47:59;;;;;;;4.25;2.90;;;;;;;20.91;52.61;101912.53;4987855;28;20057;-65
2021/06/26 02:50:25;;;;;;;5.15;3.28;;;;;;;20.91;52.45;101917.88;5003032;28;20038;-65
2021/06/26 02:52:50;;;;;;;4.45;3.08;;;;;;;20.91;52.62;101909.03;4979428;28;20041;-65
2021/06/26 02:55:16;;;;;;;5.90;3.00;;;;;;;20.91;52.57;101911.69;5007463;28;20057;-67
2021/06/26 02:57:41;;;;;;;6.43;3.08;;;;;;;20.91;52.37;101911.69;4994490;28;20114;-68
2021/06/26 03:00:09;;;;;;;4.78;3.00;;;;;;;20.91;52.94;101911.69;5007331;28;20042;-65
2021/06/26 03:02:35;;;;;;;4.57;2.70;;;;;;;20.90;52.49;101913.53;5003530;28;20052;-65
2021/06/26 03:05:00;;;;;;;4.38;2.83;;;;;;;20.89;52.92;101917.22;5012460;28;20037;-64
2021/06/26 03:07:26;;;;;;;4.72;2.85;;;;;;;20.90;52.44;101910.03;5022701;28;20038;-65
2021/06/26 03:09:51;;;;;;;5.63;3.45;;;;;;;20.89;52.79;101908.38;5025514;28;20037;-65
2021/06/26 03:12:17;;;;;;;5.35;2.90;;;;;;;20.89;52.67;101917.22;5028848;28;20037;-65
2021/06/26 03:14:42;;;;;;;5.20;3.22;;;;;;;20.89;52.66;101916.38;5020225;28;20042;-66
2021/06/26 03:17:08;;;;;;;3.67;2.58;;;;;;;20.88;52.45;101912.88;5010982;28;20129;-65
2021/06/26 03:19:34;;;;;;;4.40;2.90;;;;;;;20.87;52.43;101905.91;5002089;28;20034;-65
2021/06/26 03:21:59;;;;;;;3.92;2.83;;;;;;;20.87;52.35;101905.91;4985912;28;20484;-65
2021/06/26 03:24:27;;;;;;;4.15;2.78;;;;;;;20.89;52.35;101908.38;5003536;28;20081;-65
2021/06/26 03:26:53;;;;;;;4.28;2.70;;;;;;;20.87;52.80;101900.56;4988690;28;20157;-66
2021/06/26 03:29:18;;;;;;;4.25;2.83;;;;;;;20.87;52.28;101900.56;4965026;28;20144;-65
2021/06/26 03:31:44;;;;;;;6.10;3.13;;;;;;;20.86;52.43;101909.56;5011080;28;20033;-66
2021/06/26 03:34:09;;;;;;;4.65;2.70;;;;;;;20.86;52.50;101901.56;5011957;28;20079;-65
2021/06/26 03:36:34;;;;;;;5.57;2.70;;;;;;;20.86;52.29;101906.09;4993431;28;20045;-66
2021/06/26 03:39:00;;;;;;;3.67;2.50;;;;;;;20.85;52.50;101907.09;5010696;28;20030;-65
2021/06/26 03:41:26;;;;;;;4.55;2.70;;;;;;;20.85;52.50;101918.59;5011430;28;20052;-64
2021/06/26 03:43:58;;;;;;;4.00;2.88;;;;;;;20.85;52.49;101912.44;5010667;28;20085;-65
2021/06/26 03:46:24;;;;;;;3.67;2.40;;;;;;;20.85;52.73;101915.94;5010924;28;20120;-65
2021/06/26 03:48:50;;;;;;;3.95;2.50;;;;;;;20.85;52.68;101907.09;5010564;28;20080;-65
2021/06/26 03:51:16;;;;;;;3.35;2.30;;;;;;;20.84;52.39;101916.94;5005449;28;20054;-65
2021/06/26 03:53:41;;;;;;;4.95;2.75;;;;;;;20.84;52.38;101911.59;5001210;28;20037;-65
2021/06/26 03:56:06;;;;;;;5.57;2.63;;;;;;;20.84;52.54;101916.09;4996834;28;20033;-65
2021/06/26 03:58:32;;;;;;;3.63;2.25;;;;;;;20.83;52.32;101917.13;5010855;28;20042;-65
2021/06/26 04:00:57;;;;;;;4.53;2.60;;;;;;;20.84;52.42;101927.59;4997380;28;20473;-65
2021/06/26 04:03:23;;;;;;;4.07;2.40;;;;;;;20.83;52.15;101922.44;5011397;28;20128;-66
2021/06/26 04:05:49;;;;;;;3.85;2.03;;;;;;;20.83;52.58;101925.13;5019675;28;20069;-65
2021/06/26 04:08:15;;;;;;;3.80;2.20;;;;;;;20.82;52.56;101924.25;5027653;28;20116;-65
2021/06/26 04:10:42;;;;;;;3.83;2.40;;;;;;;20.83;52.25;101933.94;4996621;28;20116;-64
2021/06/26 04:13:08;;;;;;;3.50;2.20;;;;;;;20.83;52.44;101928.59;5011868;28;21617;-64
2021/06/26 04:15:34;;;;;;;4.68;2.40;;;;;;;20.82;52.23;101928.75;5003667;28;20068;-65
2021/06/26 04:18:00;;;;;;;4.28;2.10;;;;;;;20.82;52.13;101924.25;5024156;28;20080;-65
2021/06/26 04:20:26;;;;;;;3.60;2.15;;;;;;;20.82;52.11;101932.25;5012805;28;20042;-65
2021/06/26 04:22:51;;;;;;;4.53;2.38;;;;;;;20.82;52.45;101934.09;5029084;28;20536;-65
2021/06/26 04:25:17;;;;;;;4.85;2.50;;;;;;;20.82;52.61;101932.25;5029317;28;20088;-66
2021/06/26 04:27:44;;;;;;;3.55;2.05;;;;;;;20.82;52.25;101936.75;5021430;28;20076;-65
2021/06/26 04:30:11;;;;;;;3.17;2.08;;;;;;;20.81;52.08;101932.44;5011774;28;20042;-65
2021/06/26 04:32:38;;;;;;;3.45;2.00;;;;;;;20.81;52.39;101941.25;5029972;28;20051;-65
2021/06/26 04:35:10;;;;;;;3.03;2.05;;;;;;;20.80;52.23;101934.28;5010961;28;20037;-68
2021/06/26 04:37:36;;;;;;;3.38;2.08;;;;;;;20.81;52.08;101932.44;5017754;28;20041;-66
2021/06/26 04:40:03;;;;;;;3.60;2.15;;;;;;;20.80;52.05;101933.44;5011098;28;20124;-68
2021/06/26 04:42:28;;;;;;;3.20;2.17;;;;;;;20.80;52.28;101941.44;5015485;28;20045;-65
2021/06/26 04:44:55;;;;;;;3.85;2.20;;;;;;;20.80;52.12;101944.13;5011549;28;20037;-66
2021/06/26 04:47:20;;;;;;;3.20;2.13;;;;;;;20.80;52.35;101941.44;5015415;28;20064;-65
2021/06/26 04:49:46;;;;;;;2.80;1.98;;;;;;;20.79;51.93;101945.13;5028923;28;20473;-69
2021/06/26 04:52:11;;;;;;;2.75;1.65;;;;;;;20.78;52.36;101944.28;5003813;28;20439;-65
2021/06/26 04:54:37;;;;;;;3.72;2.03;;;;;;;20.78;52.29;101949.63;5007564;28;20034;-66
2021/06/26 04:57:03;;;;;;;3.05;2.05;;;;;;;20.79;52.05;101955.78;5008577;28;20042;-66
2021/06/26 04:59:28;;;;;;;3.35;2.17;;;;;;;20.78;52.10;101957.63;5003210;28;20050;-65
2021/06/26 05:01:54;;;;;;;2.67;1.70;;;;;;;20.78;51.93;101952.28;5008871;28;20531;-64
2021/06/26 05:04:20;;;;;;;3.53;1.83;;;;;;;20.78;52.30;101954.13;5008537;28;20083;-65
2021/06/26 05:06:46;;;;;;;3.22;2.00;;;;;;;20.77;52.02;101953.31;5006493;28;20037;-64
2021/06/26 05:09:11;;;;;;;2.85;1.70;;;;;;;20.77;52.08;101955.13;5029096;28;20044;-65
2021/06/26 05:11:37;;;;;;;2.75;1.75;;;;;;;20.77;51.88;101958.63;5026395;28;20037;-65
2021/06/26 05:14:02;;;;;;;2.70;1.70;;;;;;;20.76;52.11;101951.66;5028486;28;20095;-64
2021/06/26 05:16:28;;;;;;;3.42;1.88;;;;;;;20.77;52.20;101952.47;5003424;28;20050;-65
2021/06/26 05:18:53;;;;;;;2.90;1.80;;;;;;;20.76;52.05;101954.31;5028323;28;20044;-65
2021/06/26 05:21:19;;;;;;;3.40;2.00;;;;;;;20.76;52.19;101956.16;5010836;28;20490;-66
2021/06/26 05:23:45;;;;;;;3.17;2.00;;;;;;;20.75;51.80;101957.97;5010622;28;20045;-65
2021/06/26 05:26:11;;;;;;;2.78;1.70;;;;;;;20.74;52.32;101953.66;5022527;28;20048;-65
2021/06/26 05:28:37;;;;;;;2.55;1.40;;;;;;;20.74;52.23;101948.31;5008961;28;20053;-65
2021/06/26 05:31:04;;;;;;;2.10;1.50;;;;;;;20.76;52.03;101956.97;5028659;28;20112;-65
2021/06/26 05:33:30;;;;;;;3.20;1.67;;;;;;;20.74;52.11;101959.00;5027832;28;20138;-65
2021/06/26 05:35:55;;;;;;;3.17;1.63;;;;;;;20.74;52.07;101959.00;5006631;28;20080;-65
2021/06/26 05:38:21;;;;;;;2.58;1.52;;;;;;;20.75;51.77;101959.81;5021582;28;20037;-69
2021/06/26 05:40:46;;;;;;;2.67;1.42;;;;;;;20.74;52.04;101974.16;5002071;28;20711;-66
2021/06/26 05:43:12;;;;;;;4.20;1.83;;;;;;;20.72;52.02;101971.69;5010607;28;20042;-65
2021/06/26 05:45:37;;;;;;;2.83;1.65;;;;;;;20.73;52.01;101983.16;5009604;28;20065;-66
2021/06/26 05:48:03;;;;;;;2.50;1.52;;;;;;;20.72;51.88;101974.34;5007918;28;20038;-66
2021/06/26 05:50:29;;;;;;;3.80;1.95;;;;;;;20.72;51.74;101982.34;4994636;28;20053;-68
2021/06/26 05:52:55;;;;;;;2.00;1.38;;;;;;;20.71;51.79;101980.69;4997101;28;20030;-68
2021/06/26 05:55:22;;;;;;;2.55;1.45;;;;;;;20.72;52.00;101986.84;5009170;28;20442;-67
2021/06/26 05:57:48;;;;;;;1.95;1.42;;;;;;;20.72;51.87;101978.84;5007638;28;20061;-67
2021/06/26 06:00:15;;;;;;;2.75;1.60;;;;;;;20.71;51.81;101980.69;5008371;28;20469;-68
2021/06/26 06:02:41;;;;;;;2.35;1.55;;;;;;;20.70;51.95;101984.34;4991207;28;20037;-67
2021/06/26 06:05:08;;;;;;;2.63;1.60;;;;;;;20.71;51.70;101991.34;4996835;28;20048;-68
2021/06/26 06:07:37;;;;;;;2.45;1.50;;;;;;;20.71;51.96;101986.00;5023505;28;20501;-68
2021/06/26 06:10:04;;;;;;;4.57;1.63;;;;;;;20.69;51.92;101990.69;5027513;28;20388;-67
2021/06/26 06:12:33;;;;;;;2.35;1.40;;;;;;;20.70;51.68;101992.34;5028702;28;20041;-67
2021/06/26 06:14:58;;;;;;;2.90;1.40;;;;;;;20.70;51.75;101989.69;5008527;28;20048;-66
2021/06/26 06:17:24;;;;;;;2.33;1.35;;;;;;;20.71;51.85;101993.19;5022016;28;20337;-68
2021/06/26 06:19:49;;;;;;;3.10;1.30;;;;;;;20.69;52.18;101996.03;5008290;28;20037;-67
2021/06/26 06:22:15;;;;;;;3.78;1.75;;;;;;;20.68;52.18;101994.38;4980674;28;20045;-68
2021/06/26 06:24:40;;;;;;;1.92;1.30;;;;;;;20.68;51.90;101991.72;4987301;28;20120;-66
2021/06/26 06:27:06;;;;;;;2.13;1.10;;;;;;;20.68;51.91;101994.38;5002295;28;20477;-66
2021/06/26 06:29:32;;;;;;;2.22;1.30;;;;;;;20.68;51.72;101997.03;5028843;28;20057;-67
2021/06/26 06:31:57;;;;;;;3.25;1.52;;;;;;;20.68;52.16;101999.72;4996108;28;20033;-66
2021/06/26 06:34:23;;;;;;;2.25;1.65;;;;;;;20.68;52.12;101997.03;5028353;28;20056;-66
2021/06/26 06:36:48;;;;;;;2.63;1.40;;;;;;;20.67;51.98;102008.72;5003015;28;20036;-68
2021/06/26 06:39:13;;;;;;;2.42;1.35;;;;;;;20.67;51.98;102005.19;5027818;28;20037;-69
2021/06/26 06:41:39;;;;;;;2.63;1.13;;;;;;;20.67;52.02;101991.84;5027840;28;20074;-70
2021/06/26 06:44:04;;;;;;;2.35;1.33;;;;;;;20.67;51.91;102000.72;5026602;28;20061;-71
2021/06/26 06:46:30;;;;;;;2.17;1.30;;;;;;;20.67;51.82;101999.84;5004784;28;20080;-72
2021/06/26 06:48:55;;;;;;;2.33;1.20;;;;;;;20.67;52.28;102007.84;5004440;28;20121;-70
2021/06/26 06:51:21;;;;;;;2.17;0.93;;;;;;;20.67;52.18;102008.72;5007003;28;20077;-62
2021/06/26 06:53:46;;;;;;;2.22;1.20;;;;;;;20.68;52.84;102013.03;4995709;28;20038;-61
2021/06/26 06:56:12;;;;;;;4.03;1.15;;;;;;;20.69;53.06;102008.53;4989789;28;20026;-61
2021/06/26 06:58:37;;;;;;;1.83;1.20;;;;;;;20.71;52.82;102014.53;5002064;28;20471;-61
2021/06/26 07:01:03;;;;;;;2.90;1.20;;;;;;;20.70;52.98;102019.03;4995800;28;20066;-61
2021/06/26 07:03:28;;;;;;;3.13;1.23;;;;;;;20.70;53.05;102016.34;4978094;28;20077;-63
2021/06/26 07:05:53;;;;;;;2.10;1.10;;;;;;;20.71;53.65;102017.19;4992576;28;20058;-62
2021/06/26 07:08:19;;;;;;;2.47;1.02;;;;;;;20.72;53.30;102024.19;4993168;28;20065;-63
2021/06/26 07:10:44;;;;;;;4.18;1.20;;;;;;;20.72;53.49;102025.00;4972922;28;20043;-63
2021/06/26 07:13:10;;;;;;;4.22;1.20;;;;;;;20.72;53.95;102030.34;4992713;28;20025;-63
2021/06/26 07:15:36;;;;;;;3.25;1.27;;;;;;;20.73;53.80;102025.84;4986580;28;20045;-62
2021/06/26 07:18:01;;;;;;;2.92;1.10;;;;;;;20.74;54.10;102032.81;4988989;28;20425;-60
2021/06/26 07:20:27;;;;;;;1.90;1.23;;;;;;;20.75;53.99;102026.50;4978203;28;20038;-63
2021/06/26 07:22:54;;;;;;;3.63;1.00;;;;;;;20.75;54.17;102029.16;4990094;28;20405;-63
2021/06/26 07:25:20;;;;;;;3.45;1.10;;;;;;;20.75;54.30;102029.97;4983634;28;20037;-65
2021/06/26 07:27:46;;;;;;;4.47;1.05;;;;;;;20.76;54.23;102034.31;5004633;28;20042;-65
2021/06/26 07:30:12;;;;;;;2.63;1.10;;;;;;;20.76;54.33;102031.66;5002607;28;20037;-65
2021/06/26 07:32:38;;;;;;;1.90;0.90;;;;;;;20.77;54.33;102035.13;4973862;28;20042;-64
2021/06/26 07:35:05;;;;;;;3.60;0.98;;;;;;;20.77;54.52;102038.63;5005738;28;20034;-63
2021/06/26 07:37:32;;;;;;;4.63;1.00;;;;;;;20.76;54.20;102031.66;5010185;28;20527;-67
2021/06/26 07:39:58;;;;;;;5.80;1.20;;;;;;;20.77;53.86;102032.47;5010982;28;20030;-63
2021/06/26 07:42:23;;;;;;;2.85;0.65;;;;;;;20.72;53.40;102030.34;5004902;28;20447;-62
2021/06/26 07:44:48;;;;;;;3.53;0.68;;;;;;;20.71;53.39;102019.84;5021117;28;20037;-63
2021/06/26 07:47:14;;;;;;;4.60;1.02;;;;;;;20.67;53.13;102032.72;5004876;28;20037;-62
2021/06/26 07:49:39;;;;;;;5.32;1.25;;;;;;;20.65;52.96;102029.34;5020052;28;20132;-65
2021/06/26 07:52:05;;;;;;;3.30;0.80;;;;;;;20.62;52.65;102030.53;4995519;28;20060;-62
2021/06/26 07:54:31;;;;;;;3.85;1.02;;;;;;;20.60;52.38;102027.22;5006476;28;20037;-62
2021/06/26 07:56:56;;;;;;;5.68;1.10;;;;;;;20.58;52.32;102029.25;5010893;28;20068;-63
2021/06/26 07:59:22;;;;;;;3.55;1.10;;;;;;;20.56;52.47;102025.91;5010850;28;20065;-61
2021/06/26 08:01:47;;;;;;;4.15;1.00;;;;;;;20.55;52.22;102028.75;5002201;28;20045;-63
2021/06/26 08:04:12;;;;;;;5.03;0.80;;;;;;;20.52;52.40;102029.13;5003844;28;20688;-62
2021/06/26 08:06:38;;;;;;;1.83;0.65;;;;;;;20.51;52.19;102046.09;5027512;28;20400;-63
2021/06/26 08:09:04;;;;;;;4.68;0.90;;;;;;;20.48;51.91;102044.59;4998955;28;20042;-63
2021/06/26 08:11:30;;;;;;;3.40;1.00;;;;;;;20.47;51.99;102042.94;5012256;28;20038;-62
2021/06/26 08:13:57;;;;;;;4.03;0.80;;;;;;;20.45;51.70;102049.44;5004777;28;20084;-62
2021/06/26 08:16:23;;;;;;;1.83;0.70;;;;;;;20.44;51.56;102045.13;5013672;28;20037;-62
2021/06/26 08:18:48;;;;;;;4.28;1.05;;;;;;;20.42;51.70;102047.13;5012894;28;20034;-62
2021/06/26 08:21:18;;;;;;;2.80;0.80;;;;;;;20.40;51.70;102043.78;5001436;28;20112;-62
2021/06/26 08:23:44;;;;;;;3.85;0.82;;;;;;;20.40;51.38;102049.13;5021969;28;20041;-62
2021/06/26 08:26:09;;;;;;;2.92;0.73;;;;;;;20.38;51.43;102051.94;5016746;28;20045;-65
2021/06/26 08:28:35;;;;;;;2.50;0.98;;;;;;;20.38;51.58;102053.78;5018711;28;20037;-65
2021/06/26 08:31:00;;;;;;;4.68;0.70;;;;;;;20.37;51.65;102049.47;5029822;28;20060;-62
2021/06/26 08:33:26;;;;;;;3.85;1.08;;;;;;;20.36;51.54;102050.47;5024935;28;20458;-62
2021/06/26 08:35:51;;;;;;;5.72;0.93;;;;;;;20.35;51.29;102060.25;5010533;28;20385;-62
2021/06/26 08:38:17;;;;;;;2.70;0.70;;;;;;;20.32;51.01;102058.78;5011313;28;20034;-62
2021/06/26 08:40:43;;;;;;;3.20;0.93;;;;;;;20.31;51.17;102054.44;5011207;28;20040;-62
2021/06/26 08:43:08;;;;;;;2.53;0.95;;;;;;;20.31;51.27;102053.63;5010041;28;20551;-62
2021/06/26 08:45:36;;;;;;;3.42;0.80;;;;;;;20.30;51.15;102047.47;4997761;28;20056;-63
2021/06/26 08:48:01;;;;;;;1.45;0.60;;;;;;;20.27;51.03;102053.13;5019324;28;20067;-62
2021/06/26 08:50:28;;;;;;;3.53;1.00;;;;;;;20.25;50.91;102052.50;4993385;28;20034;-62
2021/06/26 08:52:54;;;;;;;3.05;0.60;;;;;;;20.24;50.84;102058.81;5006280;28;20041;-63
2021/06/26 08:55:20;;;;;;;3.00;0.70;;;;;;;20.24;50.84;102058.81;5019294;28;20098;-63
2021/06/26 08:57:46;;;;;;;5.55;1.52;;;;;;;20.23;50.83;102065.16;4994306;28;20088;-65
2021/06/26 09:00:19;;;;;;;4.68;0.90;;;;;;;20.23;50.90;102062.50;5012370;28;20584;-62
2021/06/26 09:02:45;;;;;;;3.20;0.60;;;;;;;20.22;50.73;102066.16;5011136;28;20556;-62
2021/06/26 09:05:22;;;;;;;2.90;0.70;;;;;;;20.22;50.68;102071.47;5025539;28;20041;-62
2021/06/26 09:07:47;;;;;;;2.63;0.70;;;;;;;20.21;50.93;102069.00;5018171;28;20046;-63
2021/06/26 09:10:21;;;;;;;2.25;0.80;;;;;;;20.18;50.95;102064.81;5024303;28;20033;-62
2021/06/26 09:12:50;;;;;;;4.07;0.80;;;;;;;20.20;50.99;102062.84;5020316;28;20053;-62
2021/06/26 09:15:24;;;;;;;2.95;0.57;;;;;;;20.18;50.93;102067.47;5015169;28;20030;-62
2021/06/26 09:17:49;;;;;;;2.45;0.70;;;;;;;20.18;50.93;102067.47;5014318;28;20034;-62
2021/06/26 09:20:15;;;;;;;1.85;0.60;;;;;;;20.19;50.70;102065.63;5008374;28;20140;-63
2021/06/26 09:22:43;;;;;;;3.72;0.90;;;;;;;20.19;50.63;102071.78;5020031;28;20060;-63
2021/06/26 09:25:25;;;;;;;2.50;0.65;;;;;;;20.15;50.74;102070.47;5020085;28;20034;-67
2021/06/26 09:27:51;;;;;;;2.45;0.88;;;;;;;20.18;50.69;102061.31;5019967;28;20526;-63
2021/06/26 09:30:17;;;;;;;1.75;0.60;;;;;;;20.17;50.73;102071.13;5020594;28;20015;-62
2021/06/26 09:32:46;;;;;;;3.05;0.70;;;;;;;20.16;50.52;102061.50;5003541;28;20497;-62
2021/06/26 09:35:17;;;;;;;3.53;0.70;;;;;;;20.16;50.73;102068.66;5016336;28;20026;-63
2021/06/26 09:37:43;;;;;;;2.53;0.77;;;;;;;20.15;50.32;102069.66;5018734;28;20069;-62
2021/06/26 09:40:11;;;;;;;2.55;0.70;;;;;;;20.14;50.11;102073.31;5005731;28;20056;-63
2021/06/26 09:42:39;;;;;;;3.58;0.70;;;;;;;20.11;50.55;102069.16;5024475;28;20034;-61
2021/06/26 09:45:10;;;;;;;2.85;0.70;;;;;;;20.09;50.42;102068.50;5019680;28;20481;-65
2021/06/26 09:47:43;;;;;;;2.30;0.73;;;;;;;20.08;50.16;102063.34;5015780;28;20461;-64
2021/06/26 09:50:12;;;;;;;4.40;0.70;;;;;;;20.08;50.12;102063.34;5006312;28;20041;-63
2021/06/26 09:53:03;;;;;;;2.92;0.80;;;;;;;20.04;50.45;102053.03;4998360;28;20366;-62
2021/06/26 09:55:31;;;;;;;4.00;0.73;;;;;;;20.09;50.46;102059.69;5009392;28;20161;-62
2021/06/26 09:58:01;;;;;;;4.05;1.00;;;;;;;20.09;50.19;102054.38;5005633;28;20160;-63
2021/06/26 10:00:28;;;;;;;5.10;0.93;;;;;;;20.07;50.56;102049.22;4999210;28;20517;-63
2021/06/26 10:02:55;;;;;;;3.17;0.90;;;;;;;20.07;50.28;102057.19;5006560;28;20125;-62
2021/06/26 10:05:21;;;;;;;1.60;0.52;;;;;;;20.06;50.55;102058.19;4997520;28;20049;-63
2021/06/26 10:07:52;;;;;;;2.10;0.73;;;;;;;20.06;50.19;102055.53;5007983;28;20050;-63
2021/06/26 10:10:22;;;;;;;2.33;0.80;;;;;;;20.05;50.33;102053.88;5008736;28;20120;-64
2021/06/26 10:12:50;;;;;;;2.47;0.95;;;;;;;20.06;50.63;102055.53;5009067;28;20084;-62
2021/06/26 10:15:17;;;;;;;2.08;0.80;;;;;;;20.05;50.09;102053.88;5008678;28;20040;-64
2021/06/26 10:17:44;;;;;;;3.28;0.80;;;;;;;20.05;50.48;102048.53;5009111;28;20445;-62
2021/06/26 10:20:12;;;;;;;2.38;0.70;;;;;;;20.05;50.12;102043.22;5008379;28;20038;-63
2021/06/26 10:22:40;;;;;;;2.72;0.80;;;;;;;20.05;50.29;102048.53;5012285;28;20041;-63
2021/06/26 10:25:07;;;;;;;3.00;0.70;;;;;;;20.05;50.30;102048.53;5015924;28;20040;-63
2021/06/26 10:27:33;;;;;;;1.90;0.80;;;;;;;20.05;50.46;102056.53;5014874;28;20115;-62
2021/06/26 10:30:28;;;;;;;3.65;0.65;;;;;;;20.01;50.58;102057.84;5001841;28;20482;-63
2021/06/26 10:32:58;;;;;;;2.05;0.80;;;;;;;20.03;50.65;102056.69;4992780;28;20058;-62
2021/06/26 10:35:26;;;;;;;2.90;0.60;;;;;;;20.04;50.66;102063.69;5010267;28;20494;-64
2021/06/26 10:38:09;;;;;;;3.28;0.95;;;;;;;20.02;50.22;102051.53;5013945;28;20049;-63
2021/06/26 10:40:40;;;;;;;3.63;0.90;;;;;;;20.03;50.24;102055.84;5003674;28;20032;-65
2021/06/26 10:43:30;;;;;;;3.15;0.80;;;;;;;19.99;50.65;102063.34;5014090;28;20083;-64
2021/06/26 10:46:12;;;;;;;2.72;0.85;;;;;;;20.00;50.45;102066.84;4994079;28;20045;-64
2021/06/26 10:48:53;;;;;;;4.32;0.85;;;;;;;20.02;50.50;102062.19;5024974;28;20125;-64
2021/06/26 10:51:30;;;;;;;4.13;1.00;;;;;;;20.01;50.17;102064.00;5021192;28;20485;-62
2021/06/26 10:53:55;;;;;;;4.93;1.20;;;;;;;20.03;50.31;102066.50;5007854;28;20146;-67
2021/06/26 10:56:30;;;;;;;3.05;1.30;;;;;;;20.02;50.66;102075.50;5006960;28;20109;-63
2021/06/26 10:59:07;;;;;;;;;;;;;;;19.96;50.64;102060.19;5008476;28;20034;-63
2021/06/26 11:01:32;;;;;;;3.65;1.00;;;;;;;20.01;50.67;102071.16;5008749;28;19913;-62
2021/06/26 11:04:09;;;;;;;5.22;1.25;;;;;;;19.99;50.33;102075.84;5012624;28;20026;-66
2021/06/26 11:06:36;;;;;;;5.38;1.02;;;;;;;20.01;50.24;102071.16;5028858;28;20038;-67
2021/06/26 11:09:06;;;;;;;3.90;1.10;;;;;;;20.00;50.36;102066.84;5032014;28;20037;-62
2021/06/26 11:11:43;;;;;;;4.85;1.20;;;;;;;19.97;50.56;102064.53;5030583;28;20075;-63
2021/06/26 11:14:14;;;;;;;4.13;1.10;;;;;;;19.97;50.28;102067.19;5032082;28;20115;-62
2021/06/26 11:16:45;;;;;;;4.95;0.98;;;;;;;19.97;50.13;102065.34;5030454;28;20025;-63
2021/06/26 11:19:11;;;;;;;4.30;1.10;;;;;;;19.97;50.34;102069.84;5032421;28;20037;-64
2021/06/26 11:21:41;;;;;;;3.30;0.90;;;;;;;19.97;50.18;102073.34;5030098;28;20040;-63